Bitflower — SBJE — position and weather

sailwx.info

Track history (hours):
 
Tides and Currents Weather Stations Pressure Air Temp Water Temp Dewpoint Dewpoint Depression Visibility Wind Speed Wind Dir Waves Ship Positions

Bitflower

Last reported at 2017-Jan-22 23:33 UTC. Time now 2017-Jan-23 00:32 UTC.
Position N 53°59' W 005°23'.

; draft 6.4 m.

Type: Ship. MMSI: 266009000.

Date/timePositionNaut miles runAvg speedWind from/ knotsBaromVisibWave heightAir tempDewpointWater temp
2017-Jan-22 23:33N 53°59' W 005°23'22010.8
2017-Jan-22 03:10N 50°20' W 005°53'85 8.8
2017-Jan-21 17:27N 49°58' W 003°44'1010.7
2017-Jan-21 16:33N 49°58' W 003°28'1010.5
2017-Jan-21 15:33N 49°59' W 003°12'1110.1
2017-Jan-21 14:30N 50°00' W 002°56'10611.9
2017-Jan-21 05:33N 50°29' W 000°16'1211.3
2017-Jan-21 04:30N 50°33' E 000°02'1010.8
2017-Jan-21 03:33N 50°35' E 000°17'1110.6
2017-Jan-21 02:33N 50°38' E 000°34'1111.1
2017-Jan-21 01:34N 50°45' E 000°48'2512.4
2017-Jan-20 23:33N 50°60' E 001°19'1312.9
2017-Jan-20 22:33N 51°08' E 001°35'1211.7
2017-Jan-20 21:33N 51°17' E 001°47'1110.9
2017-Jan-20 20:33N 51°26' E 001°56'1110.5
2017-Jan-20 19:32N 51°34' E 002°08'1010.3
2017-Jan-20 18:33N 51°42' E 002°18'3610.6
2017-Jan-20 15:06N 52°02' E 003°07'711.9
2017-Jan-20 14:29N 52°02' E 003°19'1112.0
2017-Jan-20 13:33N 52°03' E 003°38'1111.2
2017-Jan-20 12:33N 52°02' E 003°56'1413.7
2017-Jan-20 11:33N 51°55' E 004°14'2 1.6
2017-Jan-20 10:26N 51°53' E 004°16'0 0.0
2017-Jan-20 09:20N 51°53' E 004°16'0 0.0
2017-Jan-20 08:32N 51°53' E 004°16'0 0.0
2017-Jan-20 07:33N 51°53' E 004°16'0 0.0
2017-Jan-20 06:30N 51°53' E 004°16'0 0.0
2017-Jan-20 05:33N 51°53' E 004°16'0 0.0
2017-Jan-20 04:28N 51°53' E 004°16'0 0.0
2017-Jan-20 03:30N 51°53' E 004°16'0 0.0
2017-Jan-20 02:28N 51°53' E 004°16'0 0.0
2017-Jan-20 01:33N 51°53' E 004°16'0 0.0
2017-Jan-20 00:30N 51°53' E 004°16'0 0.0
2017-Jan-19 23:33N 51°53' E 004°16'0 0.0
2017-Jan-19 22:33N 51°53' E 004°16'0 0.0
2017-Jan-19 21:33N 51°53' E 004°16'0 0.0
2017-Jan-19 20:33N 51°53' E 004°16'0 0.0
2017-Jan-19 19:33N 51°53' E 004°16'0 0.0
2017-Jan-19 18:33N 51°53' E 004°16'0 0.0
2017-Jan-19 17:33N 51°53' E 004°16'0 0.0
2017-Jan-19 16:33N 51°53' E 004°16'0 0.0
2017-Jan-19 15:33N 51°53' E 004°16'0 0.1
2017-Jan-19 14:33N 51°53' E 004°16'4 3.8
2017-Jan-19 13:33N 51°56' E 004°12'1211.6
2017-Jan-19 12:33N 52°00' E 003°54'1111.2
2017-Jan-19 11:33N 51°55' E 003°38'1 0.7
2017-Jan-19 10:32N 51°54' E 003°38'0 0.1
2017-Jan-19 09:28N 51°54' E 003°38'0 0.0
2017-Jan-19 08:32N 51°54' E 003°38'0 0.0
2017-Jan-19 07:28N 51°54' E 003°38'0 0.0
2017-Jan-19 06:32N 51°54' E 003°38'0 0.0
2017-Jan-19 05:28N 51°54' E 003°38'0 0.1
2017-Jan-19 04:22N 51°54' E 003°38'0 0.0
2017-Jan-19 03:32N 51°54' E 003°38'0 0.0
2017-Jan-19 02:32N 51°54' E 003°38'0 0.0
2017-Jan-19 01:28N 51°54' E 003°38'0 0.0
2017-Jan-19 00:20N 51°54' E 003°38'0 0.0
2017-Jan-18 23:32N 51°54' E 003°38'0 0.0
2017-Jan-18 22:26N 51°54' E 003°38'0 0.0
2017-Jan-18 21:20N 51°54' E 003°38'0 0.1
2017-Jan-18 20:26N 51°54' E 003°38'0 0.0
2017-Jan-18 18:11N 51°54' E 003°38'0 0.1
2017-Jan-18 15:32N 51°54' E 003°38'0 0.0
2017-Jan-18 14:32N 51°54' E 003°38'0 0.0
2017-Jan-18 13:23N 51°54' E 003°38'0 0.0
2017-Jan-18 12:32N 51°54' E 003°38'0 0.1
2017-Jan-18 10:22N 51°54' E 003°38'0 0.0
2017-Jan-18 09:33N 51°54' E 003°38'0 0.0
2017-Jan-18 08:08N 51°54' E 003°38'0 0.0
2017-Jan-18 07:32N 51°54' E 003°38'0 0.0
2017-Jan-18 05:08N 51°54' E 003°38'0 0.0
2017-Jan-17 22:23N 51°54' E 003°38'0 0.1
2017-Jan-17 20:11N 51°54' E 003°38'0 0.0
2017-Jan-17 19:32N 51°54' E 003°38'0 0.0
2017-Jan-17 17:27N 51°54' E 003°38'0 0.0
2017-Jan-17 15:30N 51°54' E 003°38'0 0.1
2017-Jan-17 14:32N 51°54' E 003°38'0 0.0
2017-Jan-17 11:26N 51°54' E 003°38'0 0.1
2017-Jan-17 10:29N 51°54' E 003°38'5 4.9
2017-Jan-17 09:32N 51°56' E 003°31'1110.8
2017-Jan-17 08:33N 51°54' E 003°14'4711.7
2017-Jan-17 04:32N 51°28' E 002°11'1312.6
2017-Jan-17 03:31N 51°16' E 002°04'1313.2
2017-Jan-17 02:33N 51°08' E 001°48'1312.8
2017-Jan-17 01:33N 50°59' E 001°33'115 9.6
2017-Jan-16 13:32N 50°08' W 001°10'1212.7
2017-Jan-16 12:33N 50°05' W 001°28'1413.8
2017-Jan-16 11:34N 50°01' W 001°49'200 8.0
2017-Jan-15 10:25N 52°13' W 005°48'8 9.1
2017-Jan-15 09:33N 52°21' W 005°46'11211.8
2017-Jan-15 00:05N 54°12' W 005°19'611.6
2017-Jan-14 23:33N 54°18' W 005°18'1312.6
2017-Jan-14 22:34N 54°31' W 005°19'1414.2
2017-Jan-14 21:33N 54°43' W 005°30'1211.2
2017-Jan-14 20:31N 54°40' W 005°49'3 0.1
2017-Jan-13 07:20N 54°38' W 005°53'6 8.4
2017-Jan-13 06:33N 54°42' W 005°45'4 3.7
2017-Jan-13 05:33N 54°43' W 005°38'4 4.3
2017-Jan-13 04:33N 54°43' W 005°31'4 4.0
2017-Jan-13 03:33N 54°41' W 005°26'7 7.1
2017-Jan-13 02:33N 54°34' W 005°22'8 8.3
2017-Jan-13 01:33N 54°26' W 005°19'9 8.7
2017-Jan-13 00:33N 54°17' W 005°19'  
Track history (hours):
 
Tides and Currents Weather Stations Pressure Air Temp Water Temp Dewpoint Dewpoint Depression Visibility Wind Speed Wind Dir Waves Ship Positions

Bitflower

Last reported at 2017-Jan-22 23:33 UTC. Time now 2017-Jan-23 00:32 UTC.
Position N 53°59' W 005°23'.

; draft 6.4 m.

Type: Ship. MMSI: 266009000.

Date/timePositionNaut miles runAvg speedWind from/ knotsBaromVisibWave heightAir tempDewpointWater temp
2017-Jan-22 23:33N 53°59' W 005°23'22010.8
2017-Jan-22 03:10N 50°20' W 005°53'85 8.8
2017-Jan-21 17:27N 49°58' W 003°44'1010.7
2017-Jan-21 16:33N 49°58' W 003°28'1010.5
2017-Jan-21 15:33N 49°59' W 003°12'1110.1
2017-Jan-21 14:30N 50°00' W 002°56'10611.9
2017-Jan-21 05:33N 50°29' W 000°16'1211.3
2017-Jan-21 04:30N 50°33' E 000°02'1010.8
2017-Jan-21 03:33N 50°35' E 000°17'1110.6
2017-Jan-21 02:33N 50°38' E 000°34'1111.1
2017-Jan-21 01:34N 50°45' E 000°48'2512.4
2017-Jan-20 23:33N 50°60' E 001°19'1312.9
2017-Jan-20 22:33N 51°08' E 001°35'1211.7
2017-Jan-20 21:33N 51°17' E 001°47'1110.9
2017-Jan-20 20:33N 51°26' E 001°56'1110.5
2017-Jan-20 19:32N 51°34' E 002°08'1010.3
2017-Jan-20 18:33N 51°42' E 002°18'3610.6
2017-Jan-20 15:06N 52°02' E 003°07'711.9
2017-Jan-20 14:29N 52°02' E 003°19'1112.0
2017-Jan-20 13:33N 52°03' E 003°38'1111.2
2017-Jan-20 12:33N 52°02' E 003°56'1413.7
2017-Jan-20 11:33N 51°55' E 004°14'2 1.6
2017-Jan-20 10:26N 51°53' E 004°16'0 0.0
2017-Jan-20 09:20N 51°53' E 004°16'0 0.0
2017-Jan-20 08:32N 51°53' E 004°16'0 0.0
2017-Jan-20 07:33N 51°53' E 004°16'0 0.0
2017-Jan-20 06:30N 51°53' E 004°16'0 0.0
2017-Jan-20 05:33N 51°53' E 004°16'0 0.0
2017-Jan-20 04:28N 51°53' E 004°16'0 0.0
2017-Jan-20 03:30N 51°53' E 004°16'0 0.0
2017-Jan-20 02:28N 51°53' E 004°16'0 0.0
2017-Jan-20 01:33N 51°53' E 004°16'0 0.0
2017-Jan-20 00:30N 51°53' E 004°16'0 0.0
2017-Jan-19 23:33N 51°53' E 004°16'0 0.0
2017-Jan-19 22:33N 51°53' E 004°16'0 0.0
2017-Jan-19 21:33N 51°53' E 004°16'0 0.0
2017-Jan-19 20:33N 51°53' E 004°16'0 0.0
2017-Jan-19 19:33N 51°53' E 004°16'0 0.0
2017-Jan-19 18:33N 51°53' E 004°16'0 0.0
2017-Jan-19 17:33N 51°53' E 004°16'0 0.0
2017-Jan-19 16:33N 51°53' E 004°16'0 0.0
2017-Jan-19 15:33N 51°53' E 004°16'0 0.1
2017-Jan-19 14:33N 51°53' E 004°16'4 3.8
2017-Jan-19 13:33N 51°56' E 004°12'1211.6
2017-Jan-19 12:33N 52°00' E 003°54'1111.2
2017-Jan-19 11:33N 51°55' E 003°38'1 0.7
2017-Jan-19 10:32N 51°54' E 003°38'0 0.1
2017-Jan-19 09:28N 51°54' E 003°38'0 0.0
2017-Jan-19 08:32N 51°54' E 003°38'0 0.0
2017-Jan-19 07:28N 51°54' E 003°38'0 0.0
2017-Jan-19 06:32N 51°54' E 003°38'0 0.0
2017-Jan-19 05:28N 51°54' E 003°38'0 0.1
2017-Jan-19 04:22N 51°54' E 003°38'0 0.0
2017-Jan-19 03:32N 51°54' E 003°38'0 0.0
2017-Jan-19 02:32N 51°54' E 003°38'0 0.0
2017-Jan-19 01:28N 51°54' E 003°38'0 0.0
2017-Jan-19 00:20N 51°54' E 003°38'0 0.0
2017-Jan-18 23:32N 51°54' E 003°38'0 0.0
2017-Jan-18 22:26N 51°54' E 003°38'0 0.0
2017-Jan-18 21:20N 51°54' E 003°38'0 0.1
2017-Jan-18 20:26N 51°54' E 003°38'0 0.0
2017-Jan-18 18:11N 51°54' E 003°38'0 0.1
2017-Jan-18 15:32N 51°54' E 003°38'0 0.0
2017-Jan-18 14:32N 51°54' E 003°38'0 0.0
2017-Jan-18 13:23N 51°54' E 003°38'0 0.0
2017-Jan-18 12:32N 51°54' E 003°38'0 0.1
2017-Jan-18 10:22N 51°54' E 003°38'0 0.0
2017-Jan-18 09:33N 51°54' E 003°38'0 0.0
2017-Jan-18 08:08N 51°54' E 003°38'0 0.0
2017-Jan-18 07:32N 51°54' E 003°38'0 0.0
2017-Jan-18 05:08N 51°54' E 003°38'0 0.0
2017-Jan-17 22:23N 51°54' E 003°38'0 0.1
2017-Jan-17 20:11N 51°54' E 003°38'0 0.0
2017-Jan-17 19:32N 51°54' E 003°38'0 0.0
2017-Jan-17 17:27N 51°54' E 003°38'0 0.0
2017-Jan-17 15:30N 51°54' E 003°38'0 0.1
2017-Jan-17 14:32N 51°54' E 003°38'0 0.0
2017-Jan-17 11:26N 51°54' E 003°38'0 0.1
2017-Jan-17 10:29N 51°54' E 003°38'5 4.9
2017-Jan-17 09:32N 51°56' E 003°31'1110.8
2017-Jan-17 08:33N 51°54' E 003°14'4711.7
2017-Jan-17 04:32N 51°28' E 002°11'1312.6
2017-Jan-17 03:31N 51°16' E 002°04'1313.2
2017-Jan-17 02:33N 51°08' E 001°48'1312.8
2017-Jan-17 01:33N 50°59' E 001°33'115 9.6
2017-Jan-16 13:32N 50°08' W 001°10'1212.7
2017-Jan-16 12:33N 50°05' W 001°28'1413.8
2017-Jan-16 11:34N 50°01' W 001°49'200 8.0
2017-Jan-15 10:25N 52°13' W 005°48'8 9.1
2017-Jan-15 09:33N 52°21' W 005°46'11211.8
2017-Jan-15 00:05N 54°12' W 005°19'611.6
2017-Jan-14 23:33N 54°18' W 005°18'1312.6
2017-Jan-14 22:34N 54°31' W 005°19'1414.2
2017-Jan-14 21:33N 54°43' W 005°30'1211.2
2017-Jan-14 20:31N 54°40' W 005°49'3 0.1
2017-Jan-13 07:20N 54°38' W 005°53'6 8.4
2017-Jan-13 06:33N 54°42' W 005°45'4 3.7
2017-Jan-13 05:33N 54°43' W 005°38'4 4.3
2017-Jan-13 04:33N 54°43' W 005°31'4 4.0
2017-Jan-13 03:33N 54°41' W 005°26'7 7.1
2017-Jan-13 02:33N 54°34' W 005°22'8 8.3
2017-Jan-13 01:33N 54°26' W 005°19'9 8.7
2017-Jan-13 00:33N 54°17' W 005°19'  

Dump ship's entire track history